Aviation Digital Data Service (ADDS)

Output produced by TAFs form (1927 UTC 27 May 2017)
found at http://aviationweather.gov/adds/tafs/
 
KHOB 271720Z 2718/2818 24017G27KT P6SM FEW250 
     FM280100 26007KT P6SM FEW250 
     FM280900 01022G30KT P6SM BKN015